createdAt,value
2023-02-05T00:00:59.174Z,7.32
2023-02-05T00:03:25.820Z,7.33
2023-02-05T00:05:52.471Z,7.30
2023-02-05T00:08:19.132Z,7.24
2023-02-05T00:10:51.589Z,7.23
2023-02-05T00:13:18.249Z,7.27
2023-02-05T00:15:44.889Z,7.17
2023-02-05T00:18:11.503Z,7.20
2023-02-05T00:20:38.162Z,7.18
2023-02-05T00:23:04.922Z,7.18
2023-02-05T00:25:31.941Z,7.15
2023-02-05T00:27:58.775Z,7.12
2023-02-05T00:30:25.416Z,7.13
2023-02-05T00:32:52.163Z,7.17
2023-02-05T00:35:18.778Z,7.11
2023-02-05T00:37:45.416Z,7.07
2023-02-05T00:40:12.086Z,7.11
2023-02-05T00:42:38.772Z,7.05
2023-02-05T00:45:05.663Z,7.09
2023-02-05T00:47:32.314Z,7.15
2023-02-05T00:49:58.970Z,7.08
2023-02-05T00:52:25.650Z,7.01
2023-02-05T00:54:52.394Z,7.04
2023-02-05T00:57:19.044Z,6.87
2023-02-05T00:59:45.668Z,6.95
2023-02-05T01:02:12.348Z,6.98
2023-02-05T01:04:38.995Z,7.03
2023-02-05T01:07:05.627Z,7.04
2023-02-05T01:09:32.262Z,7.00
2023-02-05T01:11:59.450Z,7.09
2023-02-05T01:14:26.102Z,7.04
2023-02-05T01:16:52.755Z,7.04
2023-02-05T01:19:19.412Z,6.96
2023-02-05T01:21:46.059Z,6.98
2023-02-05T01:24:12.701Z,6.98
2023-02-05T01:26:39.351Z,6.88
2023-02-05T01:29:06.013Z,6.86
2023-02-05T01:31:32.857Z,6.94
2023-02-05T01:33:59.527Z,6.97
2023-02-05T01:36:26.180Z,6.98
2023-02-05T01:38:52.892Z,7.02
2023-02-05T01:41:19.509Z,6.97
2023-02-05T01:44:10.776Z,7.01
2023-02-05T01:46:40.738Z,6.93
2023-02-05T01:49:08.060Z,6.94
2023-02-05T01:51:35.390Z,6.92
2023-02-05T01:54:02.054Z,6.92
2023-02-05T01:56:34.173Z,6.92
2023-02-05T01:59:33.993Z,6.88
2023-02-05T02:02:00.639Z,6.81
2023-02-05T02:04:36.253Z,6.81
2023-02-05T02:07:03.230Z,6.82
2023-02-05T02:09:29.881Z,6.75
2023-02-05T02:11:57.182Z,6.78
2023-02-05T02:14:23.957Z,6.77
2023-02-05T02:16:50.610Z,6.75
2023-02-05T02:20:12.878Z,6.75
2023-02-05T02:22:58.165Z,6.77
2023-02-05T02:25:55.490Z,6.71
2023-02-05T02:28:28.473Z,6.68
2023-02-05T02:31:02.718Z,6.61
2023-02-05T02:33:36.280Z,6.57
2023-02-05T02:36:18.031Z,6.53
2023-02-05T02:38:49.282Z,6.49
2023-02-05T02:41:32.401Z,6.49
2023-02-05T02:43:59.985Z,6.42
2023-02-05T02:46:31.983Z,6.42
2023-02-05T02:49:02.056Z,6.37
2023-02-05T02:51:28.716Z,6.39
2023-02-05T02:53:56.969Z,6.36
2023-02-05T02:56:24.631Z,6.39
2023-02-05T02:58:54.552Z,6.36
2023-02-05T03:01:22.339Z,6.35
2023-02-05T03:03:59.667Z,6.38
2023-02-05T03:06:26.440Z,6.29
2023-02-05T03:08:56.254Z,6.23
2023-02-05T03:11:22.908Z,6.20
2023-02-05T03:13:49.576Z,6.11
2023-02-05T03:16:16.408Z,6.13
2023-02-05T03:18:43.899Z,6.08
2023-02-05T03:21:30.413Z,6.15
2023-02-05T03:23:58.230Z,6.14
2023-02-05T03:26:35.176Z,6.13
2023-02-05T03:29:09.153Z,6.14
2023-02-05T03:32:06.599Z,6.18
2023-02-05T03:35:01.769Z,6.17
2023-02-05T03:37:53.192Z,6.18
2023-02-05T03:40:30.517Z,6.25
2023-02-05T03:43:00.570Z,6.22
2023-02-05T03:45:42.464Z,6.26
2023-02-05T03:48:21.253Z,6.24
2023-02-05T03:51:09.683Z,6.24
2023-02-05T03:53:50.496Z,6.27
2023-02-05T03:56:20.758Z,6.26
2023-02-05T03:58:48.844Z,6.17
2023-02-05T04:01:15.567Z,6.12
2023-02-05T04:03:42.250Z,6.14
2023-02-05T04:06:08.957Z,6.20
2023-02-05T04:08:35.619Z,6.24
2023-02-05T04:11:02.299Z,6.21
2023-02-05T04:13:28.951Z,6.17
2023-02-05T04:15:55.621Z,6.33
2023-02-05T04:18:22.299Z,6.28
2023-02-05T04:20:49.136Z,6.28
2023-02-05T04:23:15.793Z,6.27
2023-02-05T04:25:42.416Z,6.14
2023-02-05T04:28:09.528Z,6.22
2023-02-05T04:30:36.268Z,6.18
2023-02-05T04:33:03.002Z,6.22
2023-02-05T04:35:30.809Z,6.24
2023-02-05T04:37:57.456Z,6.27
2023-02-05T04:40:24.150Z,6.29
2023-02-05T04:42:50.910Z,6.31
2023-02-05T04:45:19.191Z,6.35
2023-02-05T04:47:45.852Z,6.44
2023-02-05T04:50:12.490Z,6.43
2023-02-05T04:52:39.149Z,6.42
2023-02-05T04:55:06.242Z,6.42
2023-02-05T04:57:32.872Z,6.44
2023-02-05T04:59:59.548Z,6.50
2023-02-05T05:02:26.426Z,6.56
2023-02-05T05:04:54.015Z,6.55
2023-02-05T05:07:20.672Z,6.56
2023-02-05T05:09:47.340Z,6.59
2023-02-05T05:12:14.033Z,6.67
2023-02-05T05:14:41.387Z,6.69
2023-02-05T05:17:08.956Z,6.75
2023-02-05T05:19:36.557Z,6.81
2023-02-05T05:22:04.132Z,6.82
2023-02-05T05:24:30.811Z,6.79
2023-02-05T05:26:57.485Z,6.77
2023-02-05T05:29:24.133Z,6.75
2023-02-05T05:31:53.461Z,6.75
2023-02-05T05:34:20.365Z,6.76
2023-02-05T05:36:47.467Z,6.77
2023-02-05T05:39:14.788Z,6.75
2023-02-05T05:41:41.756Z,6.78
2023-02-05T05:44:09.496Z,6.71
2023-02-05T05:46:36.151Z,6.69
2023-02-05T05:49:03.052Z,6.69
2023-02-05T05:51:30.049Z,6.74
2023-02-05T05:53:56.740Z,6.69
2023-02-05T05:56:24.468Z,6.70
2023-02-05T05:58:51.214Z,6.71
2023-02-05T06:01:19.644Z,6.72
2023-02-05T06:03:47.232Z,6.77
2023-02-05T06:06:13.894Z,6.69
2023-02-05T06:08:40.561Z,6.72
2023-02-05T06:11:08.015Z,6.73
2023-02-05T06:13:35.065Z,6.71
2023-02-05T06:16:02.004Z,6.72
2023-02-05T06:18:28.830Z,6.67
2023-02-05T06:20:56.388Z,6.64
2023-02-05T06:23:23.990Z,6.57
2023-02-05T06:25:50.798Z,6.63
2023-02-05T06:28:17.552Z,6.63
2023-02-05T06:30:44.334Z,6.66
2023-02-05T06:33:11.030Z,6.70
2023-02-05T06:35:37.638Z,6.72
2023-02-05T06:38:04.338Z,6.68
2023-02-05T06:40:30.985Z,6.69
2023-02-05T06:42:57.615Z,6.69
2023-02-05T06:45:24.261Z,6.72
2023-02-05T06:47:51.365Z,6.78
2023-02-05T06:50:18.041Z,6.83
2023-02-05T06:52:44.706Z,6.93
2023-02-05T06:55:11.709Z,6.98
2023-02-05T06:57:38.360Z,7.02
2023-02-05T07:00:08.485Z,7.12
2023-02-05T07:02:35.164Z,7.16
2023-02-05T07:05:01.839Z,7.11
2023-02-05T07:07:28.479Z,7.15
2023-02-05T07:09:55.636Z,7.16
2023-02-05T07:12:22.270Z,7.03
2023-02-05T07:14:48.926Z,6.95
2023-02-05T07:17:15.711Z,6.93
2023-02-05T07:19:42.530Z,6.89
2023-02-05T07:22:09.181Z,6.83
2023-02-05T07:24:37.887Z,6.73
2023-02-05T07:27:04.595Z,6.61
2023-02-05T07:29:38.992Z,6.60
2023-02-05T07:32:06.745Z,6.54
2023-02-05T07:34:33.448Z,6.46
2023-02-05T07:37:00.124Z,6.52
2023-02-05T07:39:26.820Z,6.55
2023-02-05T07:41:53.426Z,6.47
2023-02-05T07:44:20.790Z,6.47
2023-02-05T07:46:47.505Z,6.48
2023-02-05T07:49:14.144Z,6.48
2023-02-05T07:51:40.825Z,6.43
2023-02-05T07:54:08.118Z,6.41
2023-02-05T07:56:34.787Z,6.45
2023-02-05T07:59:01.423Z,6.45
2023-02-05T08:01:28.038Z,6.46
2023-02-05T08:03:54.760Z,6.50
2023-02-05T08:06:21.409Z,6.54
2023-02-05T08:08:48.423Z,6.61
2023-02-05T08:11:15.563Z,6.68
2023-02-05T08:13:42.847Z,6.73
2023-02-05T08:16:10.022Z,6.83
2023-02-05T08:18:36.762Z,6.89
2023-02-05T08:21:03.392Z,6.97
2023-02-05T08:23:30.105Z,7.01
2023-02-05T08:25:57.351Z,7.07
2023-02-05T08:28:24.590Z,7.13
2023-02-05T08:30:51.285Z,7.21
2023-02-05T08:33:18.101Z,7.32
2023-02-05T08:35:44.711Z,7.32
2023-02-05T08:38:11.325Z,7.64
2023-02-05T08:40:39.289Z,9.84
2023-02-05T08:43:10.078Z,10.35
2023-02-05T08:45:37.247Z,9.91
2023-02-05T08:48:04.142Z,12.17
2023-02-05T08:50:30.802Z,11.83
2023-02-05T08:52:57.443Z,12.80
2023-02-05T08:55:27.120Z,11.98
2023-02-05T08:57:54.011Z,11.29
2023-02-05T09:00:21.920Z,10.78
2023-02-05T09:02:48.577Z,10.26
2023-02-05T09:05:15.239Z,10.10
2023-02-05T09:07:41.929Z,10.52
2023-02-05T09:10:09.748Z,13.14
2023-02-05T09:12:36.546Z,13.77
2023-02-05T09:15:03.365Z,15.19
2023-02-05T09:17:30.004Z,16.35
2023-02-05T09:19:57.256Z,16.45
2023-02-05T09:22:23.926Z,18.23
2023-02-05T09:24:50.551Z,19.29
2023-02-05T09:27:17.194Z,19.93
2023-02-05T09:29:43.814Z,20.23
2023-02-05T09:32:10.509Z,20.92
2023-02-05T09:34:37.136Z,21.38
2023-02-05T09:37:03.772Z,21.77
2023-02-05T09:40:16.508Z,22.21
2023-02-05T09:42:29.892Z,22.47
2023-02-05T09:44:59.177Z,22.95
2023-02-05T09:47:32.702Z,23.08
2023-02-05T09:50:18.852Z,22.87
2023-02-05T09:52:47.049Z,23.04
2023-02-05T09:55:22.753Z,21.90
2023-02-05T09:57:49.382Z,19.92
2023-02-05T10:00:45.904Z,18.22
2023-02-05T10:03:30.100Z,17.24
2023-02-05T10:06:31.681Z,16.05
2023-02-05T10:09:05.393Z,15.26
2023-02-05T10:11:34.716Z,14.38
2023-02-05T10:14:19.072Z,13.79
2023-02-05T10:17:10.081Z,13.67
2023-02-05T10:19:46.357Z,13.43
2023-02-05T10:22:27.134Z,13.49
2023-02-05T10:25:05.522Z,13.52
2023-02-05T10:27:49.164Z,13.25
2023-02-05T10:30:24.398Z,13.17
2023-02-05T10:33:05.160Z,12.61
2023-02-05T10:35:40.892Z,12.41
2023-02-05T10:38:14.409Z,12.56
2023-02-05T10:40:41.143Z,12.53
2023-02-05T10:43:26.713Z,12.72
2023-02-05T10:45:56.473Z,12.73
2023-02-05T10:48:33.852Z,12.83
2023-02-05T10:51:04.481Z,12.83
2023-02-05T10:53:31.142Z,12.47
2023-02-05T10:55:58.647Z,12.56
2023-02-05T10:58:37.126Z,12.45
2023-02-05T11:01:05.372Z,12.49
2023-02-05T11:03:32.302Z,12.61
2023-02-05T11:05:59.039Z,12.54
2023-02-05T11:08:39.052Z,12.23
2023-02-05T11:11:06.131Z,12.31
2023-02-05T11:13:33.376Z,12.28
2023-02-05T11:16:08.556Z,12.42
2023-02-05T11:18:45.302Z,12.51
2023-02-05T11:21:11.969Z,12.41
2023-02-05T11:23:39.077Z,12.24
2023-02-05T11:26:19.685Z,12.24
2023-02-05T11:28:46.446Z,12.11
2023-02-05T11:31:32.276Z,12.16
2023-02-05T11:34:08.090Z,12.20
2023-02-05T11:36:35.853Z,12.14
2023-02-05T11:39:03.016Z,12.08
2023-02-05T11:41:31.163Z,11.97
2023-02-05T11:44:01.257Z,11.92
2023-02-05T11:46:29.227Z,11.84
2023-02-05T11:49:02.482Z,11.89
2023-02-05T11:51:35.019Z,11.94
2023-02-05T11:54:11.530Z,11.82
2023-02-05T11:56:38.198Z,11.80
2023-02-05T11:59:06.500Z,11.79
2023-02-05T12:01:34.189Z,11.82
2023-02-05T12:04:12.846Z,11.96
2023-02-05T12:06:46.098Z,12.05
2023-02-05T12:09:15.596Z,12.09
2023-02-05T12:12:12.670Z,12.06
2023-02-05T12:15:02.119Z,11.94
2023-02-05T12:17:51.704Z,11.81
2023-02-05T12:20:56.777Z,11.75
2023-02-05T12:23:35.359Z,11.65
2023-02-05T12:26:05.669Z,11.44
2023-02-05T12:28:59.427Z,11.29
2023-02-05T12:31:47.801Z,11.10
2023-02-05T12:34:36.144Z,11.05
2023-02-05T12:37:24.041Z,11.04
2023-02-05T12:40:01.132Z,11.04
2023-02-05T12:42:39.555Z,10.96
2023-02-05T12:45:27.963Z,10.90
2023-02-05T12:48:02.748Z,10.90
2023-02-05T12:50:47.943Z,10.77
2023-02-05T12:53:59.227Z,10.80
2023-02-05T12:56:35.607Z,10.64
2023-02-05T12:59:23.600Z,10.61
2023-02-05T13:01:53.055Z,10.63
2023-02-05T13:04:35.357Z,10.73
2023-02-05T13:07:29.450Z,10.63
2023-02-05T13:10:17.700Z,10.72
2023-02-05T13:12:47.086Z,10.62
2023-02-05T13:15:25.137Z,10.56
2023-02-05T13:17:59.554Z,10.52
2023-02-05T13:20:40.176Z,10.51
2023-02-05T13:23:08.234Z,10.39
2023-02-05T13:25:40.547Z,10.32
2023-02-05T13:28:32.397Z,10.24
2023-02-05T13:30:59.220Z,10.13
2023-02-05T13:33:40.005Z,10.05
2023-02-05T13:36:24.847Z,10.00
2023-02-05T13:39:34.306Z,9.78
2023-02-05T13:42:19.131Z,9.73
2023-02-05T13:45:25.602Z,9.58
2023-02-05T13:47:56.910Z,9.57
2023-02-05T13:50:45.885Z,9.64
2023-02-05T13:53:39.037Z,9.66
2023-02-05T13:56:25.359Z,9.72
2023-02-05T13:58:55.073Z,9.67
2023-02-05T14:01:23.366Z,9.73
2023-02-05T14:04:01.035Z,9.67
2023-02-05T14:06:32.260Z,9.72
2023-02-05T14:09:01.571Z,9.71
2023-02-05T14:11:28.623Z,9.69
2023-02-05T14:14:21.258Z,9.62
2023-02-05T14:16:49.891Z,9.53
2023-02-05T14:19:21.952Z,9.59
2023-02-05T14:21:49.314Z,9.57
2023-02-05T14:24:38.927Z,9.53
2023-02-05T14:27:20.714Z,9.53
2023-02-05T14:29:48.235Z,9.61
2023-02-05T14:32:27.014Z,9.66
2023-02-05T14:35:23.085Z,9.65
2023-02-05T14:37:49.720Z,9.68
2023-02-05T14:40:28.361Z,9.67
2023-02-05T14:43:09.665Z,9.72
2023-02-05T14:45:42.401Z,9.64
2023-02-05T14:48:19.485Z,9.71
2023-02-05T14:50:46.133Z,9.66
2023-02-05T14:53:22.873Z,9.67
2023-02-05T14:55:49.536Z,9.61
2023-02-05T14:58:24.593Z,9.53
2023-02-05T15:00:51.232Z,9.56
2023-02-05T15:03:23.154Z,9.55
2023-02-05T15:06:02.065Z,9.54
2023-02-05T15:08:34.662Z,9.45
2023-02-05T15:12:05.989Z,9.51
2023-02-05T15:14:50.797Z,9.45
2023-02-05T15:17:17.426Z,9.41
2023-02-05T15:19:50.149Z,9.38
2023-02-05T15:22:26.573Z,9.38
2023-02-05T15:24:53.194Z,9.47
2023-02-05T15:27:24.780Z,9.48
2023-02-05T15:29:52.426Z,9.52
2023-02-05T15:32:37.614Z,9.50
2023-02-05T15:35:06.354Z,9.51
2023-02-05T15:37:43.480Z,9.54
2023-02-05T15:40:16.912Z,9.49
2023-02-05T15:42:45.380Z,9.50
2023-02-05T15:45:32.052Z,9.45
2023-02-05T15:48:10.709Z,9.38
2023-02-05T15:50:50.507Z,9.38
2023-02-05T15:53:33.674Z,9.31
2023-02-05T15:56:23.949Z,9.31
2023-02-05T15:59:00.368Z,9.22
2023-02-05T16:01:30.383Z,9.19
2023-02-05T16:03:57.351Z,9.23
2023-02-05T16:06:24.757Z,9.24
2023-02-05T16:08:51.687Z,9.19
2023-02-05T16:11:28.334Z,9.11
2023-02-05T16:14:25.356Z,9.07
2023-02-05T16:17:04.749Z,9.06
2023-02-05T16:19:34.732Z,9.04
2023-02-05T16:22:21.512Z,8.98
2023-02-05T16:24:48.154Z,8.93
2023-02-05T16:27:16.838Z,8.99
2023-02-05T16:29:52.322Z,8.95
2023-02-05T16:32:25.268Z,8.93
2023-02-05T16:34:51.925Z,8.91
2023-02-05T16:37:18.575Z,8.81
2023-02-05T16:39:52.572Z,8.81
2023-02-05T16:42:51.519Z,8.64
2023-02-05T16:45:20.580Z,8.55
2023-02-05T16:48:24.811Z,8.47
2023-02-05T16:50:51.522Z,8.43
2023-02-05T16:53:21.807Z,8.44
2023-02-05T16:55:48.429Z,8.41
2023-02-05T16:58:20.973Z,8.35
2023-02-05T17:00:58.186Z,8.35
2023-02-05T17:03:24.913Z,8.30
2023-02-05T17:05:59.982Z,8.33
2023-02-05T17:08:29.015Z,8.24
2023-02-05T17:10:56.520Z,8.18
2023-02-05T17:13:32.106Z,8.23
2023-02-05T17:16:28.121Z,8.19
2023-02-05T17:19:05.084Z,8.23
2023-02-05T17:21:35.327Z,8.21
2023-02-05T17:24:02.030Z,8.22
2023-02-05T17:26:30.999Z,8.21
2023-02-05T17:29:00.066Z,8.18
2023-02-05T17:31:27.397Z,8.11
2023-02-05T17:33:54.241Z,7.88
2023-02-05T17:36:20.931Z,7.78
2023-02-05T17:38:47.635Z,7.77
2023-02-05T17:41:24.373Z,7.70
2023-02-05T17:43:51.046Z,7.69
2023-02-05T17:46:17.748Z,7.64
2023-02-05T17:48:44.484Z,7.59
2023-02-05T17:51:17.416Z,7.56
2023-02-05T17:53:44.053Z,7.42
2023-02-05T17:56:10.698Z,7.44
2023-02-05T17:58:37.324Z,7.37
2023-02-05T18:01:03.979Z,7.28
2023-02-05T18:03:30.669Z,7.24
2023-02-05T18:05:58.201Z,7.26
2023-02-05T18:08:24.831Z,7.18
2023-02-05T18:10:51.587Z,7.12
2023-02-05T18:13:18.206Z,7.05
2023-02-05T18:15:44.818Z,6.98
2023-02-05T18:18:11.467Z,6.86
2023-02-05T18:20:38.085Z,6.79
2023-02-05T18:23:04.733Z,6.69
2023-02-05T18:25:31.351Z,6.67
2023-02-05T18:28:00.903Z,6.61
2023-02-05T18:30:27.657Z,6.60
2023-02-05T18:32:54.317Z,6.55
2023-02-05T18:35:20.984Z,6.57
2023-02-05T18:37:47.629Z,6.54
2023-02-05T18:40:14.264Z,6.57
2023-02-05T18:42:41.098Z,6.55
2023-02-05T18:45:08.392Z,6.55
2023-02-05T18:47:37.125Z,6.53
2023-02-05T18:50:03.897Z,6.58
2023-02-05T18:52:30.646Z,6.51
2023-02-05T18:54:57.476Z,6.52
2023-02-05T18:57:24.401Z,6.62
2023-02-05T18:59:51.097Z,6.65
2023-02-05T19:02:17.757Z,6.71
2023-02-05T19:04:44.408Z,6.77
2023-02-05T19:07:11.124Z,6.75
2023-02-05T19:09:37.862Z,6.80
2023-02-05T19:12:04.554Z,6.79
2023-02-05T19:14:31.178Z,6.80
2023-02-05T19:16:57.827Z,6.78
2023-02-05T19:19:25.037Z,6.78
2023-02-05T19:21:52.964Z,6.81
2023-02-05T19:24:19.618Z,6.81
2023-02-05T19:26:46.248Z,6.85
2023-02-05T19:29:14.572Z,6.78
2023-02-05T19:31:41.598Z,6.66
2023-02-05T19:34:08.289Z,6.55
2023-02-05T19:36:34.976Z,6.53
2023-02-05T19:39:01.957Z,6.50
2023-02-05T19:41:28.658Z,6.45
2023-02-05T19:43:56.781Z,6.42
2023-02-05T19:46:27.866Z,6.44
2023-02-05T19:48:56.355Z,6.50
2023-02-05T19:51:23.065Z,6.46
2023-02-05T19:53:49.684Z,6.52
2023-02-05T19:56:18.273Z,6.41
2023-02-05T19:58:46.550Z,6.39
2023-02-05T20:01:14.445Z,6.35
2023-02-05T20:03:41.268Z,6.31
2023-02-05T20:06:08.295Z,6.34
2023-02-05T20:08:34.940Z,6.34
2023-02-05T20:11:01.885Z,6.30
2023-02-05T20:13:29.300Z,5.94
2023-02-05T20:15:55.975Z,5.86
2023-02-05T20:18:22.784Z,5.88
2023-02-05T20:20:49.602Z,5.91
2023-02-05T20:23:16.359Z,5.92
2023-02-05T20:25:43.105Z,5.89
2023-02-05T20:28:09.802Z,5.99
2023-02-05T20:30:36.788Z,5.93
2023-02-05T20:33:03.637Z,5.96
2023-02-05T20:35:30.782Z,5.80
2023-02-05T20:37:57.513Z,5.50
2023-02-05T20:40:24.155Z,5.36
2023-02-05T20:42:50.786Z,5.40
2023-02-05T20:45:17.434Z,5.24
2023-02-05T20:47:44.098Z,5.12
2023-02-05T20:50:10.715Z,5.29
2023-02-05T20:52:37.322Z,5.36
2023-02-05T20:55:04.200Z,5.46
2023-02-05T20:57:30.848Z,5.48
2023-02-05T20:59:57.503Z,5.49
2023-02-05T21:02:24.139Z,5.44
2023-02-05T21:04:52.550Z,5.40
2023-02-05T21:07:19.465Z,5.35
2023-02-05T21:09:46.213Z,5.23
2023-02-05T21:12:12.837Z,5.36
2023-02-05T21:14:39.502Z,5.42
2023-02-05T21:17:06.125Z,5.51
2023-02-05T21:19:32.746Z,5.53
2023-02-05T21:21:59.458Z,5.61
2023-02-05T21:24:26.105Z,5.67
2023-02-05T21:26:52.753Z,5.78
2023-02-05T21:29:19.962Z,5.76
2023-02-05T21:31:48.326Z,5.69
2023-02-05T21:34:16.634Z,5.76
2023-02-05T21:36:43.442Z,5.68
2023-02-05T21:39:10.945Z,5.71
2023-02-05T21:41:37.590Z,5.80
2023-02-05T21:44:04.211Z,5.80
2023-02-05T21:46:30.859Z,5.70
2023-02-05T21:48:58.405Z,5.66
2023-02-05T21:51:29.968Z,5.58
2023-02-05T21:53:58.133Z,5.57
2023-02-05T21:56:29.960Z,5.53
2023-02-05T21:58:56.656Z,5.66
2023-02-05T22:01:24.844Z,5.68
2023-02-05T22:03:55.442Z,5.60
2023-02-05T22:06:22.545Z,5.44
2023-02-05T22:08:49.494Z,5.46
2023-02-05T22:11:16.869Z,5.54
2023-02-05T22:13:44.752Z,5.53
2023-02-05T22:16:12.932Z,5.44
2023-02-05T22:18:39.608Z,5.44
2023-02-05T22:21:11.431Z,5.49
2023-02-05T22:23:38.689Z,5.47
2023-02-05T22:26:05.532Z,5.50
2023-02-05T22:28:32.304Z,5.54
2023-02-05T22:31:00.394Z,5.60
2023-02-05T22:33:27.925Z,5.65
2023-02-05T22:35:54.585Z,5.64
2023-02-05T22:38:21.619Z,5.59
2023-02-05T22:40:48.265Z,5.60
2023-02-05T22:43:14.950Z,5.64
2023-02-05T22:45:41.693Z,5.69
2023-02-05T22:48:08.467Z,5.69
2023-02-05T22:50:40.353Z,5.67
2023-02-05T22:53:08.867Z,5.63
2023-02-05T22:55:36.364Z,5.60
2023-02-05T22:58:03.450Z,5.67
2023-02-05T23:00:30.745Z,5.72
2023-02-05T23:02:57.823Z,5.66
2023-02-05T23:05:24.966Z,5.54
2023-02-05T23:07:51.965Z,5.60
2023-02-05T23:10:19.732Z,5.73
2023-02-05T23:12:46.354Z,5.66
2023-02-05T23:15:13.166Z,5.66
2023-02-05T23:17:39.804Z,5.67
2023-02-05T23:20:07.542Z,5.72
2023-02-05T23:22:34.201Z,5.69
2023-02-05T23:25:00.833Z,5.63
2023-02-05T23:27:27.983Z,5.62
2023-02-05T23:29:54.668Z,5.59
2023-02-05T23:32:21.295Z,5.55
2023-02-05T23:34:47.924Z,5.50
2023-02-05T23:37:14.577Z,5.36
2023-02-05T23:39:41.361Z,5.26
2023-02-05T23:42:07.983Z,5.20
2023-02-05T23:44:34.597Z,5.22
2023-02-05T23:47:01.214Z,5.17
2023-02-05T23:49:27.859Z,5.11
2023-02-05T23:51:54.615Z,5.07
2023-02-05T23:54:21.577Z,5.04
2023-02-05T23:56:48.197Z,5.04
2023-02-05T23:59:14.981Z,5.07
